Time;durP1;ratioP1;P1;durP2;ratioP2;P2;SDS_P1;SDS_P2;PMS_P1;PMS_P2;Temp;Humidity;BMP_temperature;BMP_pressure;BME280_temperature;BME280_humidity;BME280_pressure;Samples;Min_cycle;Max_cycle;Signal;HPM_P1;HPM_P2
2022/10/24 00:00:42;;;;;;;6.45;1.80;;;;;;;13.87;89.72;100321.78;5066598;28;20070;-77
2022/10/24 00:03:08;;;;;;;3.20;1.48;;;;;;;13.85;89.66;100318.41;5068813;28;20016;-77
2022/10/24 00:05:33;;;;;;;6.03;1.70;;;;;;;13.84;89.62;100320.19;5067256;28;20048;-77
2022/10/24 00:07:59;;;;;;;4.22;1.60;;;;;;;13.85;89.62;100318.41;5067528;28;20125;-77
2022/10/24 00:10:24;;;;;;;7.25;1.83;;;;;;;13.83;89.32;100309.81;5070074;28;20055;-78
2022/10/24 00:12:49;;;;;;;7.32;2.17;;;;;;;13.82;89.12;100303.72;5070729;28;20032;-78
2022/10/24 00:15:15;;;;;;;3.58;1.67;;;;;;;13.82;88.80;100308.94;5070249;28;20097;-78
2022/10/24 00:17:41;;;;;;;6.15;1.80;;;;;;;13.84;88.56;100307.13;5067211;28;20020;-77
2022/10/24 00:20:06;;;;;;;6.07;2.00;;;;;;;13.87;88.25;100308.72;5071303;28;20024;-77
2022/10/24 00:22:32;;;;;;;5.85;1.80;;;;;;;13.89;88.04;100306.88;5072386;28;20020;-78
2022/10/24 00:24:57;;;;;;;5.55;1.70;;;;;;;13.90;87.60;100301.59;5074329;28;20437;-77
2022/10/24 00:27:23;;;;;;;4.55;1.70;;;;;;;13.90;87.64;100303.34;5073121;28;20502;-78
2022/10/24 00:29:48;;;;;;;4.82;1.48;;;;;;;13.91;87.65;100302.44;5074497;28;20032;-77
2022/10/24 00:32:13;;;;;;;3.45;1.45;;;;;;;13.93;86.96;100300.59;5073912;28;20483;-77
2022/10/24 00:34:39;;;;;;;4.85;1.27;;;;;;;13.95;86.48;100299.59;5073256;28;20042;-77
2022/10/24 00:37:04;;;;;;;4.53;1.60;;;;;;;13.98;86.00;100293.38;5074509;28;20039;-77
2022/10/24 00:39:29;;;;;;;5.03;1.35;;;;;;;14.01;85.48;100292.38;5073910;28;20031;-77
2022/10/24 00:41:57;;;;;;;4.72;1.42;;;;;;;14.02;85.20;100284.44;5073282;28;20487;-77
2022/10/24 00:44:32;;;;;;;4.47;1.60;;;;;;;14.05;84.94;100288.69;5073287;28;20408;-77
2022/10/24 00:47:06;;;;;;;5.63;1.50;;;;;;;14.07;84.61;100292.09;5074076;28;20025;-77
2022/10/24 00:50:03;;;;;;;4.05;1.52;;;;;;;14.09;84.73;100295.47;5073551;28;20028;-77
2022/10/24 00:52:43;;;;;;;6.18;1.73;;;;;;;14.08;84.60;100292.00;5069127;28;20048;-77
2022/10/24 00:55:10;;;;;;;6.60;1.60;;;;;;;14.08;84.08;100292.00;5065063;28;20040;-78
2022/10/24 00:57:42;;;;;;;6.45;1.42;;;;;;;14.07;83.97;100276.38;5067467;28;20543;-77
2022/10/24 01:00:15;;;;;;;6.40;1.70;;;;;;;14.06;83.90;100282.53;5071482;28;20028;-77
2022/10/24 01:02:41;;;;;;;4.18;1.60;;;;;;;14.02;84.11;100288.84;5073293;28;20073;-77
2022/10/24 01:05:07;;;;;;;4.38;1.65;;;;;;;14.01;84.22;100282.75;5073506;28;20494;-77
2022/10/24 01:07:58;;;;;;;3.67;1.40;;;;;;;13.98;84.29;100277.69;5073052;28;20020;-77
2022/10/24 01:10:45;;;;;;;5.13;1.50;;;;;;;13.94;84.69;100282.19;5070750;28;20040;-77
2022/10/24 01:13:39;;;;;;;3.30;1.50;;;;;;;13.92;84.34;100288.44;5073121;28;20025;-77
2022/10/24 01:16:27;;;;;;;4.38;1.58;;;;;;;13.90;84.04;100288.53;5060510;28;20364;-77
2022/10/24 01:19:01;;;;;;;7.63;1.50;;;;;;;13.88;83.81;100281.66;5073574;28;20082;-77
2022/10/24 01:21:44;;;;;;;4.25;1.40;;;;;;;13.85;83.82;100281.81;5072328;28;20019;-77
2022/10/24 01:24:15;;;;;;;4.05;1.55;;;;;;;13.87;83.81;100280.81;5072573;28;20024;-77
2022/10/24 01:26:49;;;;;;;5.32;1.98;;;;;;;13.88;83.33;100284.28;5073621;28;20383;-78
2022/10/24 01:29:36;;;;;;;5.68;1.95;;;;;;;13.88;83.05;100281.66;5071691;28;20059;-77
2022/10/24 01:32:07;;;;;;;6.85;2.70;;;;;;;13.89;82.71;100267.66;5073065;28;20029;-78
2022/10/24 01:34:45;;;;;;;6.05;2.72;;;;;;;13.94;82.60;100265.69;5070956;28;20024;-78
2022/10/24 01:37:17;;;;;;;5.63;3.03;;;;;;;13.99;81.78;100266.31;5073054;28;20388;-77
2022/10/24 01:39:48;;;;;;;6.95;2.67;;;;;;;14.03;81.43;100262.59;5071915;28;20025;-77
2022/10/24 01:42:16;;;;;;;6.22;2.20;;;;;;;14.08;80.94;100259.78;5072773;28;20016;-77
2022/10/24 01:44:48;;;;;;;6.00;2.13;;;;;;;14.09;80.12;100259.69;5071164;28;20028;-77
2022/10/24 01:47:18;;;;;;;3.30;1.70;;;;;;;14.15;79.84;100255.91;5073197;28;20114;-77
2022/10/24 01:49:51;;;;;;;6.47;2.00;;;;;;;14.20;80.15;100245.22;5072355;28;20024;-77
2022/10/24 01:52:19;;;;;;;4.10;1.65;;;;;;;14.22;79.29;100253.81;5072716;28;20529;-77
2022/10/24 01:54:46;;;;;;;4.72;1.70;;;;;;;14.27;78.76;100251.84;5072473;28;20090;-77
2022/10/24 01:57:13;;;;;;;3.95;1.65;;;;;;;14.32;78.10;100249.84;5066229;28;20032;-77
2022/10/24 01:59:43;;;;;;;6.43;1.67;;;;;;;14.36;77.73;100251.34;5067659;28;20171;-77
2022/10/24 02:02:14;;;;;;;5.47;1.77;;;;;;;14.38;77.62;100249.50;5076125;28;20020;-77
2022/10/24 02:04:45;;;;;;;5.47;1.63;;;;;;;14.41;77.28;100244.13;5072387;28;20086;-77
2022/10/24 02:07:12;;;;;;;3.45;1.45;;;;;;;14.46;76.85;100240.44;5072494;28;20028;-77
2022/10/24 02:09:42;;;;;;;7.30;1.83;;;;;;;14.51;77.01;100243.66;5071005;28;20024;-77
2022/10/24 02:12:10;;;;;;;4.05;1.50;;;;;;;14.51;76.34;100239.25;5072221;28;20059;-77
2022/10/24 02:14:44;;;;;;;3.75;1.30;;;;;;;14.51;76.27;100246.28;5069058;28;20160;-77
2022/10/24 02:17:10;;;;;;;5.00;1.30;;;;;;;14.53;76.16;100244.41;5071576;28;20036;-78
2022/10/24 02:19:36;;;;;;;5.38;1.40;;;;;;;14.53;75.39;100242.66;5066618;28;20056;-77
2022/10/24 02:22:17;;;;;;;3.15;1.27;;;;;;;14.54;75.70;100248.72;5070295;28;20056;-77
2022/10/24 02:25:09;;;;;;;3.35;1.27;;;;;;;14.55;76.92;100245.19;5067733;28;20032;-77
2022/10/24 02:27:43;;;;;;;5.82;1.25;;;;;;;14.54;75.51;100240.84;5069177;28;20024;-77
2022/10/24 02:30:19;;;;;;;3.67;1.13;;;;;;;14.57;75.82;100248.56;5070514;28;20032;-77
2022/10/24 02:32:49;;;;;;;3.95;1.30;;;;;;;14.54;74.95;100244.34;5055217;28;20115;-77
2022/10/24 02:35:17;;;;;;;5.20;1.38;;;;;;;14.51;75.49;100243.66;5072061;28;20032;-77
2022/10/24 02:37:47;;;;;;;6.30;1.23;;;;;;;14.47;75.14;100242.13;5072174;28;20029;-77
2022/10/24 02:40:15;;;;;;;3.03;1.15;;;;;;;14.43;75.04;100241.44;5071852;28;20028;-77
2022/10/24 02:42:42;;;;;;;8.70;1.50;;;;;;;14.41;74.99;100244.13;5072297;28;20016;-78
2022/10/24 02:45:09;;;;;;;4.38;1.38;;;;;;;14.39;74.58;100232.88;5070706;28;20549;-77
2022/10/24 02:47:36;;;;;;;3.60;1.23;;;;;;;14.39;74.25;100235.50;5072276;28;20077;-77
2022/10/24 02:50:02;;;;;;;4.10;1.10;;;;;;;14.42;74.31;100237.97;5072075;28;20050;-77
2022/10/24 02:52:29;;;;;;;6.07;1.20;;;;;;;14.46;73.75;100243.88;5076745;28;20025;-77
2022/10/24 02:54:55;;;;;;;3.05;1.10;;;;;;;14.48;74.04;100239.41;5070502;28;20055;-77
2022/10/24 02:57:22;;;;;;;3.35;1.40;;;;;;;14.50;73.66;100247.22;5070998;28;20105;-77
2022/10/24 02:59:47;;;;;;;3.17;1.17;;;;;;;14.51;73.62;100238.44;5069953;28;20009;-76
2022/10/24 03:02:13;;;;;;;5.18;1.40;;;;;;;14.54;73.49;100244.34;5071991;28;20031;-77
2022/10/24 03:04:38;;;;;;;3.10;1.20;;;;;;;14.57;73.15;100261.66;5072057;28;20047;-77
2022/10/24 03:07:03;;;;;;;3.50;1.20;;;;;;;14.60;73.20;100248.41;5072533;28;20086;-77
2022/10/24 03:09:28;;;;;;;2.38;1.00;;;;;;;14.61;73.01;100242.25;5071700;28;20048;-77
2022/10/24 03:11:54;;;;;;;3.83;1.08;;;;;;;14.60;72.87;100247.56;5078599;28;20513;-77
2022/10/24 03:14:19;;;;;;;3.67;1.20;;;;;;;14.62;73.21;100246.56;5078483;28;20027;-77
2022/10/24 03:16:44;;;;;;;6.20;1.35;;;;;;;14.65;72.34;100249.03;5081165;28;20017;-77
2022/10/24 03:19:09;;;;;;;3.00;1.10;;;;;;;14.65;72.20;100251.63;5075734;28;20024;-77
2022/10/24 03:21:35;;;;;;;3.53;1.20;;;;;;;14.67;72.50;100241.06;5075051;28;20024;-77
2022/10/24 03:24:00;;;;;;;6.32;1.30;;;;;;;14.67;72.29;100252.41;5074724;28;20021;-77
2022/10/24 03:26:26;;;;;;;6.45;1.35;;;;;;;14.71;71.81;100248.72;5075165;28;20108;-77
2022/10/24 03:28:51;;;;;;;4.60;1.13;;;;;;;14.72;71.43;100253.03;5072817;28;20016;-77
2022/10/24 03:31:16;;;;;;;4.03;1.15;;;;;;;14.75;72.14;100238.09;5074217;28;20021;-77
2022/10/24 03:33:41;;;;;;;5.07;1.45;;;;;;;14.74;71.58;100239.88;5072616;28;20025;-77
2022/10/24 03:36:07;;;;;;;3.83;1.20;;;;;;;14.75;71.97;100246.78;5075142;28;20020;-77
2022/10/24 03:38:32;;;;;;;5.55;1.42;;;;;;;14.78;71.76;100243.16;5072134;28;20077;-77
2022/10/24 03:40:58;;;;;;;7.78;1.30;;;;;;;14.79;71.67;100237.00;5072483;28;20040;-77
2022/10/24 03:43:23;;;;;;;5.65;1.30;;;;;;;14.80;71.81;100238.69;5072645;28;20028;-77
2022/10/24 03:45:48;;;;;;;3.63;1.20;;;;;;;14.77;72.04;100244.94;5071639;28;20077;-77
2022/10/24 03:48:14;;;;;;;4.80;1.10;;;;;;;14.74;72.10;100242.47;5072794;28;20035;-77
2022/10/24 03:50:40;;;;;;;3.53;1.30;;;;;;;14.72;72.21;100234.69;5072955;28;20472;-77
2022/10/24 03:53:05;;;;;;;4.60;1.40;;;;;;;14.71;72.18;100238.22;5073817;28;20372;-77
2022/10/24 03:55:30;;;;;;;6.50;1.25;;;;;;;14.68;71.81;100220.09;5072897;28;20028;-77
2022/10/24 03:57:56;;;;;;;3.15;1.17;;;;;;;14.66;72.11;100229.78;5072272;28;20450;-77
2022/10/24 04:00:21;;;;;;;3.15;1.08;;;;;;;14.67;72.01;100221.00;5071889;28;20550;-77
2022/10/24 04:02:49;;;;;;;4.35;1.10;;;;;;;14.65;72.12;100232.44;5070364;28;20480;-77
2022/10/24 04:05:15;;;;;;;4.38;1.30;;;;;;;14.64;72.68;100228.13;5072636;28;20028;-77
2022/10/24 04:07:40;;;;;;;6.38;1.30;;;;;;;14.62;72.53;100230.00;5075094;28;20028;-76
2022/10/24 04:10:06;;;;;;;2.67;1.23;;;;;;;14.64;72.14;100239.47;5073001;28;20048;-77
2022/10/24 04:12:31;;;;;;;3.15;1.08;;;;;;;14.67;72.22;100227.97;5073898;28;20033;-77
2022/10/24 04:14:57;;;;;;;6.47;1.30;;;;;;;14.66;72.38;100224.53;5072032;28;20032;-77
2022/10/24 04:17:22;;;;;;;4.60;1.15;;;;;;;14.67;72.12;100233.22;5072945;28;20059;-77
2022/10/24 04:19:47;;;;;;;5.68;1.17;;;;;;;14.68;72.10;100233.19;5073026;28;20030;-77
2022/10/24 04:22:13;;;;;;;2.30;1.10;;;;;;;14.67;72.25;100227.97;5071664;28;20020;-77
2022/10/24 04:24:38;;;;;;;4.82;1.20;;;;;;;14.66;72.19;100224.53;5071487;28;20047;-77
2022/10/24 04:27:05;;;;;;;4.18;1.10;;;;;;;14.66;71.98;100221.91;5072964;28;20017;-77
2022/10/24 04:29:30;;;;;;;4.65;1.13;;;;;;;14.66;72.20;100219.31;5068046;28;20024;-77
2022/10/24 04:31:55;;;;;;;4.07;1.10;;;;;;;14.65;71.80;100217.59;5071303;28;20031;-77
2022/10/24 04:34:20;;;;;;;3.75;1.10;;;;;;;14.63;71.93;100216.84;5072016;28;20234;-77
2022/10/24 04:36:46;;;;;;;7.00;1.10;;;;;;;14.65;72.19;100232.44;5071706;28;20100;-77
2022/10/24 04:39:11;;;;;;;6.25;1.25;;;;;;;14.63;71.84;100222.06;5071818;28;20024;-77
2022/10/24 04:41:36;;;;;;;2.95;1.02;;;;;;;14.61;71.94;100223.91;5070813;28;20025;-77
2022/10/24 04:44:02;;;;;;;5.30;0.90;;;;;;;14.61;71.79;100218.69;5072588;28;20379;-77
2022/10/24 04:46:28;;;;;;;7.45;1.20;;;;;;;14.63;71.60;100224.69;5071773;28;20093;-77
2022/10/24 04:48:53;;;;;;;2.60;0.93;;;;;;;14.63;71.30;100227.31;5067520;28;20059;-77
2022/10/24 04:51:19;;;;;;;4.97;0.98;;;;;;;14.63;71.61;100235.16;5071278;28;20099;-77
2022/10/24 04:53:44;;;;;;;3.00;0.93;;;;;;;14.62;71.61;100236.09;5064923;28;20032;-77
2022/10/24 04:56:09;;;;;;;7.10;1.10;;;;;;;14.63;72.00;100236.91;5070084;28;20020;-77
2022/10/24 04:58:35;;;;;;;4.20;1.00;;;;;;;14.62;71.95;100230.00;5070922;28;20383;-77
2022/10/24 05:01:00;;;;;;;4.22;1.10;;;;;;;14.61;71.78;100237.00;5070045;28;20020;-77
2022/10/24 05:03:25;;;;;;;5.35;1.02;;;;;;;14.62;72.11;100236.09;5064691;28;20066;-77
2022/10/24 05:05:51;;;;;;;2.38;1.10;;;;;;;14.62;72.08;100245.69;5072722;28;20060;-77
2022/10/24 05:08:16;;;;;;;3.75;1.00;;;;;;;14.61;72.47;100244.88;5069052;28;20024;-77
2022/10/24 05:10:42;;;;;;;4.00;0.90;;;;;;;14.64;72.41;100244.72;5067386;28;20128;-77
2022/10/24 05:13:08;;;;;;;2.72;1.00;;;;;;;14.67;72.83;100241.94;5067929;28;20024;-77
2022/10/24 05:15:33;;;;;;;4.82;1.35;;;;;;;14.72;72.14;100239.09;5066705;28;20032;-76
2022/10/24 05:17:58;;;;;;;4.47;1.10;;;;;;;14.72;72.61;100237.31;5065181;28;20036;-76
2022/10/24 05:20:24;;;;;;;4.97;1.20;;;;;;;14.72;72.27;100236.47;5071160;28;20032;-77
2022/10/24 05:22:49;;;;;;;3.83;0.80;;;;;;;14.68;72.69;100245.41;5067423;28;20021;-78
2022/10/24 05:25:15;;;;;;;6.70;1.00;;;;;;;14.66;72.51;100253.34;5070361;28;20024;-77
2022/10/24 05:27:40;;;;;;;6.32;1.10;;;;;;;14.66;72.81;100263.81;5071402;28;20040;-77
2022/10/24 05:30:06;;;;;;;4.32;0.95;;;;;;;14.66;72.73;100250.72;5070615;28;20040;-77
2022/10/24 05:32:31;;;;;;;4.85;1.13;;;;;;;14.69;72.76;100253.19;5071264;28;20024;-77
2022/10/24 05:34:57;;;;;;;5.18;1.00;;;;;;;14.70;72.87;100259.28;5072285;28;20055;-77
2022/10/24 05:37:22;;;;;;;3.55;1.00;;;;;;;14.70;72.94;100270.59;5067774;28;20040;-77
2022/10/24 05:39:47;;;;;;;7.05;1.00;;;;;;;14.72;72.96;100267.91;5069073;28;20090;-76
2022/10/24 05:42:13;;;;;;;4.20;0.98;;;;;;;14.77;72.31;100270.28;5070972;28;20095;-77
2022/10/24 05:44:38;;;;;;;6.55;1.20;;;;;;;14.80;72.69;100254.41;5069116;28;20391;-77
2022/10/24 05:47:04;;;;;;;5.13;1.20;;;;;;;14.81;72.48;100250.84;5072102;28;20090;-77
2022/10/24 05:49:30;;;;;;;4.85;1.10;;;;;;;14.81;72.57;100256.09;5072438;28;20024;-76
2022/10/24 05:51:55;;;;;;;4.88;1.17;;;;;;;14.80;72.73;100257.03;5070413;28;20052;-77
2022/10/24 05:54:20;;;;;;;7.20;1.10;;;;;;;14.82;72.43;100263.03;5071602;28;20402;-77
2022/10/24 05:56:46;;;;;;;4.97;1.25;;;;;;;14.85;72.38;100262.88;5071906;28;20476;-76
2022/10/24 05:59:11;;;;;;;7.32;1.50;;;;;;;14.85;72.78;100271.56;5072961;28;20032;-77
2022/10/24 06:01:36;;;;;;;4.35;0.90;;;;;;;14.84;72.29;100277.72;5070615;28;20043;-77
2022/10/24 06:04:01;;;;;;;4.18;1.10;;;;;;;14.82;72.57;100258.63;5071718;28;20035;-77
2022/10/24 06:06:27;;;;;;;5.40;1.05;;;;;;;14.81;72.12;100279.66;5070324;28;20024;-77
2022/10/24 06:08:52;;;;;;;5.80;1.05;;;;;;;14.78;72.31;100266.72;5071224;28;20031;-77
2022/10/24 06:11:18;;;;;;;5.38;0.80;;;;;;;14.77;72.43;100270.28;5069331;28;20504;-77
2022/10/24 06:13:43;;;;;;;5.65;1.40;;;;;;;14.72;72.64;100268.72;5070695;28;20379;-77
2022/10/24 06:16:10;;;;;;;5.45;1.02;;;;;;;14.71;72.48;100285.38;5072012;28;20099;-77
2022/10/24 06:18:38;;;;;;;5.32;1.48;;;;;;;14.71;72.48;100272.28;5069238;28;20449;-77
2022/10/24 06:21:05;;;;;;;5.63;1.20;;;;;;;14.68;72.68;100277.69;5072438;28;20025;-77
2022/10/24 06:23:31;;;;;;;4.63;1.00;;;;;;;14.66;73.25;100276.91;5068280;28;20056;-77
2022/10/24 06:25:57;;;;;;;6.50;1.23;;;;;;;14.65;72.85;100288.28;5068975;28;20165;-77
2022/10/24 06:28:22;;;;;;;4.85;1.02;;;;;;;14.65;73.08;100279.56;5073056;28;20078;-77
2022/10/24 06:30:49;;;;;;;3.95;1.00;;;;;;;14.64;73.00;100278.75;5068921;28;20039;-77
2022/10/24 06:33:14;;;;;;;3.60;1.10;;;;;;;14.63;73.27;100284.91;5068705;28;20028;-77
2022/10/24 06:35:40;;;;;;;5.15;1.27;;;;;;;14.60;73.38;100285.06;5069369;28;20121;-77
2022/10/24 06:38:05;;;;;;;4.60;1.05;;;;;;;14.61;73.41;100288.50;5071628;28;20036;-77
2022/10/24 06:40:30;;;;;;;6.35;1.20;;;;;;;14.59;73.61;100283.34;5065178;28;20040;-77
2022/10/24 06:42:56;;;;;;;7.43;1.10;;;;;;;14.57;73.25;100285.22;5069223;28;20040;-76
2022/10/24 06:45:22;;;;;;;8.63;1.05;;;;;;;14.57;73.08;100282.59;5072473;28;20111;-77
2022/10/24 06:47:48;;;;;;;5.40;1.27;;;;;;;14.57;73.57;100293.06;5074506;28;20028;-77
2022/10/24 06:50:13;;;;;;;2.83;0.90;;;;;;;14.57;73.37;100300.91;5071374;28;20038;-77
2022/10/24 06:52:39;;;;;;;6.40;1.15;;;;;;;14.56;73.95;100299.22;5074913;28;20020;-77
2022/10/24 06:55:05;;;;;;;4.88;1.10;;;;;;;14.56;73.48;100312.31;5073395;28;20442;-78
2022/10/24 06:57:30;;;;;;;5.75;1.13;;;;;;;14.57;73.38;100306.16;5075859;28;20107;-77
2022/10/24 06:59:55;;;;;;;6.32;1.17;;;;;;;14.56;73.72;100318.41;5073027;28;20051;-77
2022/10/24 07:02:21;;;;;;;5.57;1.02;;;;;;;14.55;73.59;100313.22;5067822;28;20384;-77
2022/10/24 07:04:46;;;;;;;3.40;0.90;;;;;;;14.55;73.26;100311.47;5072972;28;20082;-77
2022/10/24 07:07:16;;;;;;;6.47;1.05;;;;;;;14.55;73.72;100315.84;5074955;28;20029;-77
2022/10/24 07:09:41;;;;;;;9.50;1.50;;;;;;;14.55;73.84;100324.56;5075882;28;20032;-77
2022/10/24 07:12:07;;;;;;;8.25;1.15;;;;;;;14.62;73.87;100335.56;5081907;28;20048;-77
2022/10/24 07:14:32;;;;;;;6.55;1.10;;;;;;;14.67;74.02;100330.09;5089462;28;20028;-77
2022/10/24 07:16:57;;;;;;;5.88;1.08;;;;;;;14.70;74.33;100330.81;5075973;28;20551;-77
2022/10/24 07:19:23;;;;;;;5.63;0.93;;;;;;;14.68;74.45;100339.66;5074587;28;20028;-77
2022/10/24 07:21:48;;;;;;;6.13;1.10;;;;;;;14.66;74.46;100351.97;5074993;28;20460;-77
2022/10/24 07:24:13;;;;;;;7.15;1.20;;;;;;;14.63;74.71;100337.25;5075656;28;20446;-77
2022/10/24 07:26:39;;;;;;;6.53;1.27;;;;;;;14.62;74.85;100345.16;5069611;28;20021;-77
2022/10/24 07:29:04;;;;;;;9.35;0.98;;;;;;;14.58;75.38;100339.25;5075720;28;20491;-78
2022/10/24 07:31:32;;;;;;;6.72;1.17;;;;;;;14.56;75.35;100344.59;5074271;28;20514;-77
2022/10/24 07:33:59;;;;;;;6.55;0.98;;;;;;;14.59;75.36;100346.19;5074805;28;20028;-77
2022/10/24 07:36:26;;;;;;;4.57;0.98;;;;;;;14.61;75.58;100354.81;5075646;28;20387;-77
2022/10/24 07:38:54;;;;;;;8.85;1.10;;;;;;;14.67;75.34;100359.75;5074438;28;20039;-77
2022/10/24 07:41:19;;;;;;;7.57;1.30;;;;;;;14.75;75.49;100366.38;5074257;28;20392;-77
2022/10/24 07:43:45;;;;;;;5.97;1.15;;;;;;;14.79;74.12;100360.91;5074700;28;20061;-77
2022/10/24 07:46:13;;;;;;;5.22;1.00;;;;;;;14.86;74.48;100366.66;5072641;28;20036;-77
2022/10/24 07:48:41;;;;;;;4.53;0.93;;;;;;;14.91;74.56;100367.28;5074203;28;20086;-77
2022/10/24 07:51:09;;;;;;;5.32;1.00;;;;;;;14.95;73.93;100371.44;5073363;28;20078;-78
2022/10/24 07:53:34;;;;;;;6.93;1.00;;;;;;;14.95;73.77;100379.31;5074570;28;20037;-77
2022/10/24 07:56:00;;;;;;;7.30;1.30;;;;;;;15.01;73.39;100384.25;5070794;28;20063;-77
2022/10/24 07:58:26;;;;;;;6.22;0.90;;;;;;;15.09;73.09;100372.50;5074415;28;20422;-77
2022/10/24 08:00:51;;;;;;;5.22;1.10;;;;;;;15.13;73.63;100381.91;5073555;28;20081;-78
2022/10/24 08:03:17;;;;;;;7.20;0.90;;;;;;;15.14;72.83;100399.31;5074224;28;20404;-77
2022/10/24 08:05:42;;;;;;;7.60;1.02;;;;;;;15.15;73.51;100412.31;5069628;28;20028;-77
2022/10/24 08:08:08;;;;;;;5.25;1.00;;;;;;;15.15;73.75;100411.50;5074733;28;20391;-77
2022/10/24 08:10:34;;;;;;;8.60;1.20;;;;;;;15.13;74.13;100415.97;5070283;28;20174;-77
2022/10/24 08:12:59;;;;;;;5.30;1.10;;;;;;;15.13;74.56;100418.59;5068371;28;20031;-78
2022/10/24 08:15:26;;;;;;;5.95;0.88;;;;;;;15.12;74.29;100422.97;5073357;28;20071;-77
2022/10/24 08:17:53;;;;;;;7.10;1.00;;;;;;;15.13;74.41;100418.59;5073592;28;20128;-77
2022/10/24 08:20:18;;;;;;;6.80;1.10;;;;;;;15.09;74.25;100417.03;5071661;28;20033;-77
2022/10/24 08:22:44;;;;;;;4.25;0.82;;;;;;;15.11;74.20;100430.91;5069328;28;20340;-77
2022/10/24 08:25:10;;;;;;;4.65;0.90;;;;;;;15.11;74.69;100418.69;5069333;28;20070;-77
2022/10/24 08:27:36;;;;;;;5.75;1.10;;;;;;;15.14;74.79;100428.13;5073375;28;20422;-77
2022/10/24 08:30:01;;;;;;;4.18;0.82;;;;;;;15.17;74.16;100436.69;5069940;28;20037;-77
2022/10/24 08:32:26;;;;;;;5.43;1.08;;;;;;;15.21;73.94;100434.75;5069549;28;20027;-77
2022/10/24 08:34:52;;;;;;;5.07;0.90;;;;;;;15.25;73.88;100428.41;5064931;28;20075;-77
2022/10/24 08:37:17;;;;;;;6.45;1.08;;;;;;;15.28;72.93;100441.38;5069952;28;20028;-77
2022/10/24 08:39:42;;;;;;;4.93;0.90;;;;;;;15.33;72.52;100457.72;5068988;28;20035;-77
2022/10/24 08:42:13;;;;;;;4.57;1.00;;;;;;;15.35;72.24;100435.81;5069795;28;20050;-77
2022/10/24 08:44:41;;;;;;;6.30;1.00;;;;;;;15.35;72.53;100457.63;5067419;28;20028;-77
2022/10/24 08:47:12;;;;;;;6.57;0.95;;;;;;;15.41;71.99;100456.44;5069080;28;20020;-77
2022/10/24 08:49:56;;;;;;;5.93;0.80;;;;;;;15.39;71.31;100455.66;5070279;28;20024;-77
2022/10/24 08:52:33;;;;;;;9.27;1.15;;;;;;;15.30;72.02;100457.88;5066584;28;20032;-77
2022/10/24 08:55:05;;;;;;;5.25;1.00;;;;;;;15.26;71.81;100461.56;5071352;28;20035;-77
2022/10/24 08:57:33;;;;;;;3.85;0.93;;;;;;;15.22;72.16;100449.53;5072950;28;20111;-77
2022/10/24 09:00:06;;;;;;;9.77;1.38;;;;;;;15.25;71.82;100446.75;5072087;28;20021;-77
2022/10/24 09:02:36;;;;;;;6.68;1.00;;;;;;;15.26;72.01;100451.06;5071313;28;20426;-77
2022/10/24 09:05:22;;;;;;;6.20;0.98;;;;;;;15.26;72.45;100448.47;5071958;28;20434;-77
2022/10/24 09:07:52;;;;;;;4.65;1.40;;;;;;;15.29;73.22;100456.16;5072227;28;20055;-77
2022/10/24 09:10:37;;;;;;;6.50;1.00;;;;;;;15.29;72.83;100450.94;5067505;28;20048;-77
2022/10/24 09:13:11;;;;;;;5.75;0.95;;;;;;;15.31;73.10;100463.94;5066600;28;20037;-77
2022/10/24 09:15:40;;;;;;;4.68;1.05;;;;;;;15.33;72.20;100462.09;5067522;28;20107;-77
2022/10/24 09:18:17;;;;;;;7.43;1.13;;;;;;;15.33;72.62;100452.47;5064309;28;20560;-77
2022/10/24 09:20:42;;;;;;;6.63;0.90;;;;;;;15.39;71.35;100459.16;5061455;28;20093;-77
2022/10/24 09:23:11;;;;;;;6.22;0.95;;;;;;;15.43;71.61;100459.84;5076758;28;20024;-77
2022/10/24 09:25:40;;;;;;;8.50;1.13;;;;;;;15.45;71.75;100481.56;5073830;28;20040;-77
2022/10/24 09:28:05;;;;;;;11.00;1.25;;;;;;;15.47;71.69;100475.31;5072394;28;20028;-77
2022/10/24 09:30:32;;;;;;;6.90;0.90;;;;;;;15.51;71.17;100480.41;5072224;28;20036;-78
2022/10/24 09:33:01;;;;;;;6.43;1.10;;;;;;;15.55;70.88;100482.78;5068970;28;20056;-77
2022/10/24 09:35:29;;;;;;;6.63;1.15;;;;;;;15.56;71.29;100481.84;5075201;28;20070;-77
2022/10/24 09:37:56;;;;;;;5.03;0.90;;;;;;;15.61;72.07;100486.88;5073793;28;20588;-77
2022/10/24 09:40:22;;;;;;;8.05;0.95;;;;;;;15.63;71.13;100485.00;5073869;28;20209;-76
2022/10/24 09:43:17;;;;;;;4.97;0.90;;;;;;;15.68;71.22;100490.03;5075783;28;20119;-77
2022/10/24 09:45:45;;;;;;;6.80;1.27;;;;;;;15.67;70.59;100494.41;5073313;28;20027;-77
2022/10/24 09:48:35;;;;;;;7.57;1.17;;;;;;;15.68;70.15;100496.09;5074856;28;20057;-77
2022/10/24 09:51:01;;;;;;;4.97;1.17;;;;;;;15.71;69.94;100495.94;5073978;28;20038;-77
2022/10/24 09:53:30;;;;;;;6.35;1.30;;;;;;;15.76;69.79;100511.44;5075630;28;20031;-77
2022/10/24 09:56:06;;;;;;;5.53;1.00;;;;;;;15.79;70.13;100511.28;5075093;28;20140;-77
2022/10/24 09:58:32;;;;;;;6.20;1.00;;;;;;;15.81;70.44;100501.56;5073419;28;20040;-77
2022/10/24 10:01:17;;;;;;;5.35;1.10;;;;;;;15.82;70.51;100513.75;5071569;28;20044;-77
2022/10/24 10:03:42;;;;;;;5.15;1.20;;;;;;;15.85;70.60;100511.00;5073753;28;20036;-78
2022/10/24 10:06:19;;;;;;;6.38;1.20;;;;;;;15.89;70.60;100515.13;5072516;28;20077;-77
2022/10/24 10:08:54;;;;;;;7.13;0.93;;;;;;;15.92;70.32;100522.84;5071197;28;20044;-77
2022/10/24 10:11:25;;;;;;;7.38;1.27;;;;;;;15.96;69.60;100522.66;5069844;28;20443;-77
2022/10/24 10:13:53;;;;;;;7.28;1.27;;;;;;;16.00;69.93;100534.72;5074517;28;20138;-77
2022/10/24 10:16:26;;;;;;;5.68;1.17;;;;;;;16.02;69.16;100532.84;5080370;28;20032;-76
2022/10/24 10:19:05;;;;;;;9.75;1.38;;;;;;;15.98;69.73;100534.78;5078875;28;20030;-77
2022/10/24 10:21:55;;;;;;;7.72;1.40;;;;;;;15.97;70.24;100540.13;5079781;28;20032;-77
2022/10/24 10:24:46;;;;;;;5.05;1.10;;;;;;;15.97;69.62;100543.56;5081679;28;20039;-78
2022/10/24 10:27:37;;;;;;;8.13;1.30;;;;;;;15.99;69.72;100546.13;5085445;28;20063;-77
2022/10/24 10:30:12;;;;;;;6.60;1.00;;;;;;;15.92;69.41;100538.56;5085625;28;20462;-77
2022/10/24 10:32:52;;;;;;;7.82;1.30;;;;;;;15.86;69.70;100548.53;5080093;28;20111;-77
2022/10/24 10:35:38;;;;;;;8.23;1.23;;;;;;;15.82;69.78;100550.47;5073881;28;20742;-77
2022/10/24 10:38:09;;;;;;;5.40;1.10;;;;;;;15.81;69.94;100551.38;5078972;28;20043;-76
2022/10/24 10:40:43;;;;;;;7.45;1.17;;;;;;;15.91;70.82;100544.75;5085749;28;20027;-77
2022/10/24 10:43:42;;;;;;;7.55;1.10;;;;;;;16.03;70.34;100563.41;5080125;28;20063;-77
2022/10/24 10:46:19;;;;;;;7.45;1.10;;;;;;;16.12;70.16;100565.53;5081971;28;20035;-76
2022/10/24 10:48:56;;;;;;;6.22;1.10;;;;;;;16.19;69.46;100566.91;5075204;28;20742;-77
2022/10/24 10:51:39;;;;;;;6.68;1.00;;;;;;;16.27;69.26;100568.25;5079423;28;20552;-77
2022/10/24 10:54:26;;;;;;;6.55;1.10;;;;;;;16.29;68.23;100571.66;5085417;28;20042;-76
2022/10/24 10:57:01;;;;;;;7.35;1.33;;;;;;;16.27;68.52;100570.88;5084257;28;20120;-76
2022/10/24 10:59:49;;;;;;;9.02;1.10;;;;;;;16.24;68.88;100577.97;5085324;28;20750;-76
2022/10/24 11:02:33;;;;;;;8.00;1.30;;;;;;;16.19;70.12;100584.41;5078835;28;20421;-76
2022/10/24 11:05:21;;;;;;;6.18;1.08;;;;;;;16.14;70.31;100600.41;5077168;28;20471;-78
2022/10/24 11:08:16;;;;;;;6.53;1.20;;;;;;;16.00;71.70;100592.44;5081132;28;20032;-78
2022/10/24 11:10:51;;;;;;;8.80;1.40;;;;;;;15.83;73.27;100596.75;5075604;28;20106;-78
2022/10/24 11:13:42;;;;;;;4.75;0.88;;;;;;;15.69;72.94;100594.81;5075443;28;20437;-78
2022/10/24 11:16:15;;;;;;;6.55;0.93;;;;;;;15.55;73.80;100592.91;5076287;28;20028;-78
2022/10/24 11:18:46;;;;;;;7.10;1.17;;;;;;;15.46;74.77;100596.00;5076383;28;20029;-78
2022/10/24 11:21:17;;;;;;;4.07;0.82;;;;;;;15.40;73.95;100610.28;5078765;28;20546;-78
2022/10/24 11:24:03;;;;;;;3.97;0.88;;;;;;;15.41;74.19;100603.25;5081113;28;20380;-77
2022/10/24 11:26:39;;;;;;;8.63;1.33;;;;;;;15.38;75.69;100595.53;5079631;28;20031;-76
2022/10/24 11:29:22;;;;;;;4.40;0.80;;;;;;;15.31;75.89;100595.84;5070748;28;20038;-77
2022/10/24 11:31:53;;;;;;;5.05;1.15;;;;;;;15.30;77.11;100604.63;5076012;28;20138;-77
2022/10/24 11:34:32;;;;;;;9.65;1.10;;;;;;;15.36;78.05;100602.66;5081978;28;20036;-77